18分钟前
罗盘
风向 的 风向 140° 多倫多皮爾遜國際機場 5/23
风: 9 千吨, 3 beaufort
0 500 1.500 3.000 5.000 8.000 10.000
FEW 7.700 ft
BKN 10.000 ft
METAR CYHM 020000Z 14009KT 15SM FEW077 BKN100 03/M01 A2991 RMK AC2AC5 PRESFR SLP140

METAR定义 | 嵌入

24小时趋势

航班类别VFRLIFR
温度4 °C-1 °C
风速14 千吨0 千吨
能见度24 公里0 米

更多历史数据

下载我们的安卓应用程序

从你的主屏幕上轻松地访问你的航空天气。
只需一次付费,您就可以获得无广告的体验。

您会帮助我们保持Metar-Taf.com正常运行吗?
您的贡献有助于网站的进一步开发并支付费用。

没有更多广告

您是捐款5美元还是更多?然后,我们将永远不会再向您展示广告,这是我们永恒的感谢!
捐赠前先登录

METAR 多倫多皮爾遜國際機場

多倫多皮爾遜國際機場是Toronto,加拿大中的大型机场。 机场有{a,plural,=1{一条跑道} other{#跑道}}: 5/23, 06R/24L, 06L/24R, 15R/33L 和 15L/33R

多倫多皮爾遜國際機場最近未发布观察结果。相反,我们向您显示61 km的报告John C. Munro Hamilton International Airport。 该报告是针对2021年12月1日 19:00, 当地时间进行的。

机场观察

风来自南东 (140°)方向,速度为9 千吨。

可见度为24 公里。

有几云在7.700 ft的高度 和 碎云在10.000 ft的高度。 破损或更高的上限为10.000 ft。

温度为3 °C,阵风为-3 °C。 露点为-1 °C,相对湿度为75%。 海平面上的气压为1013 压力 (QNH)。

评论

  • 气压迅速下降 (PRESFR)
  • 海平面压力为1014,0 压力 (SLP140)
  • AC2AC5

白天

今天,太阳从07:33升起,在16:42降落。 这适用于多倫多皮爾遜國際機場,世界夏令时可能有所不同。 当地时间与世界标准时间之间的时差为-5 小时。 当前,没有夏令时有效。

公司介绍

我们没有关于这个机场的公司信息。

体会

到Vliegles.nl去找飞行课程,跳伞和其他飞行体验。 浏览页面,了解多倫多皮爾遜國際機場附近所有可用的活动。 你也可以使用搜索功能来寻找你所在地附近的特定飞行课程、跳伞或其他飞行体验。

您是否要在网站上多倫多皮爾遜國際機場飞行的天气? 阅读更多   自由!